Time;durP1;ratioP1;P1;durP2;ratioP2;P2;SDS_P1;SDS_P2;PMS_P1;PMS_P2;Temp;Humidity;BMP_temperature;BMP_pressure;BME280_temperature;BME280_humidity;BME280_pressure;Samples;Min_cycle;Max_cycle;Signal;HPM_P1;HPM_P2
2023/09/15 00:00:25;;;;;;;4.80;4.30;;;11.30;99.90;;;;;;5054928;28;20638;-59
2023/09/15 00:02:56;;;;;;;4.50;4.10;;;11.30;99.90;;;;;;5056315;28;20521;-59
2023/09/15 00:05:26;;;;;;;4.23;3.83;;;11.30;99.90;;;;;;5059209;28;20576;-59
2023/09/15 00:07:54;;;;;;;4.40;3.77;;;11.20;99.90;;;;;;5056424;28;21468;-60
2023/09/15 00:10:22;;;;;;;4.80;3.90;;;11.20;99.90;;;;;;5053407;28;20506;-58
2023/09/15 00:12:50;;;;;;;4.20;3.90;;;11.20;99.90;;;;;;5053787;28;20884;-59
2023/09/15 00:15:19;;;;;;;3.80;3.50;;;11.20;99.90;;;;;;5057741;28;20497;-59
2023/09/15 00:17:48;;;;;;;4.40;4.00;;;11.10;99.90;;;;;;5045659;28;20959;-58
2023/09/15 00:20:17;;;;;;;3.77;3.47;;;11.10;99.90;;;;;;5054691;28;20469;-58
2023/09/15 00:22:49;;;;;;;4.30;3.90;;;11.10;99.90;;;;;;5053602;28;20493;-59
2023/09/15 00:25:19;;;;;;;3.73;3.43;;;11.10;99.90;;;;;;5057139;28;20501;-59
2023/09/15 00:27:47;;;;;;;4.20;3.80;;;11.10;99.90;;;;;;5047901;28;20476;-57
2023/09/15 00:30:18;;;;;;;4.97;4.00;;;11.10;99.90;;;;;;5052697;28;20560;-59
2023/09/15 00:32:48;;;;;;;4.17;3.77;;;11.00;99.90;;;;;;5051185;28;20502;-58
2023/09/15 00:35:18;;;;;;;4.17;3.87;;;11.00;99.90;;;;;;5054467;28;20505;-59
2023/09/15 00:37:47;;;;;;;3.47;3.27;;;11.00;99.90;;;;;;5053667;28;21817;-58
2023/09/15 00:40:16;;;;;;;3.83;3.43;;;10.90;99.90;;;;;;5054573;28;20474;-58
2023/09/15 00:42:45;;;;;;;3.77;3.47;;;10.90;99.90;;;;;;5051409;28;20485;-59
2023/09/15 00:45:14;;;;;;;5.83;3.70;;;10.80;99.90;;;;;;5055355;28;21110;-58
2023/09/15 00:47:46;;;;;;;3.87;3.50;;;10.80;99.90;;;;;;5050531;28;20497;-59
2023/09/15 00:50:17;;;;;;;4.17;3.77;;;10.80;99.90;;;;;;5055019;28;20472;-58
2023/09/15 00:52:50;;;;;;;5.50;3.60;;;10.80;99.90;;;;;;5048215;28;20594;-59
2023/09/15 00:55:22;;;;;;;4.37;3.97;;;10.80;99.90;;;;;;5058786;28;20949;-59
2023/09/15 00:57:54;;;;;;;4.13;3.77;;;10.80;99.90;;;;;;5060797;28;20521;-59
2023/09/15 01:00:27;;;;;;;3.80;2.90;;;10.80;99.90;;;;;;5062275;28;20485;-59
2023/09/15 01:03:11;;;;;;;4.23;3.47;;;10.70;99.90;;;;;;5043775;28;20496;-58
2023/09/15 01:05:41;;;;;;;4.90;4.17;;;10.70;99.90;;;;;;5055299;28;20482;-59
2023/09/15 01:08:10;;;;;;;4.00;3.70;;;10.60;99.90;;;;;;5049692;28;20868;-59
2023/09/15 01:10:38;;;;;;;4.23;3.57;;;10.60;99.90;;;;;;5048430;28;20524;-59
2023/09/15 01:13:07;;;;;;;3.87;3.47;;;10.50;99.90;;;;;;5050583;28;20486;-59
2023/09/15 01:15:45;;;;;;;3.80;3.50;;;10.50;99.90;;;;;;5062115;28;20592;-58
2023/09/15 01:18:26;;;;;;;3.50;3.20;;;10.50;99.90;;;;;;5060433;28;20996;-59
2023/09/15 01:21:32;;;;;;;4.03;3.47;;;10.50;99.90;;;;;;5048238;28;20508;-58
2023/09/15 01:24:55;;;;;;;3.67;3.03;;;10.50;99.90;;;;;;5061118;28;20989;-59
2023/09/15 01:27:52;;;;;;;3.60;3.20;;;10.50;99.90;;;;;;4989902;28;20478;-60
2023/09/15 01:30:24;;;;;;;4.00;3.60;;;10.50;99.90;;;;;;4986037;28;22495;-59
2023/09/15 01:32:56;;;;;;;3.67;3.13;;;10.50;99.90;;;;;;5034457;28;21038;-59
2023/09/15 01:35:26;;;;;;;3.53;3.23;;;10.50;99.90;;;;;;5056952;28;20527;-59
2023/09/15 01:37:56;;;;;;;3.43;3.17;;;10.40;99.90;;;;;;5052850;28;20538;-60
2023/09/15 01:40:25;;;;;;;3.40;3.10;;;10.40;99.90;;;;;;5064331;28;20548;-59
2023/09/15 01:42:55;;;;;;;3.70;3.40;;;10.40;99.90;;;;;;5052339;28;20529;-59
2023/09/15 01:45:27;;;;;;;4.17;3.53;;;10.30;99.90;;;;;;5057505;28;20964;-60
2023/09/15 01:47:55;;;;;;;4.27;3.33;;;10.30;99.90;;;;;;5041734;28;21268;-59
2023/09/15 01:50:24;;;;;;;3.83;3.47;;;10.30;99.90;;;;;;5058027;28;21244;-60
2023/09/15 01:52:53;;;;;;;3.60;3.30;;;10.30;99.90;;;;;;5050501;28;21263;-60
2023/09/15 01:55:22;;;;;;;4.10;3.77;;;10.30;99.90;;;;;;5055673;28;20513;-59
2023/09/15 01:57:50;;;;;;;3.53;3.23;;;10.20;99.90;;;;;;5049757;28;20481;-59
2023/09/15 02:00:18;;;;;;;4.30;3.57;;;10.30;99.90;;;;;;5054183;28;20476;-59
2023/09/15 02:02:48;;;;;;;3.40;3.10;;;10.30;99.90;;;;;;5053822;28;21113;-59
2023/09/15 02:05:24;;;;;;;3.57;3.03;;;10.30;99.90;;;;;;5057731;28;20489;-59
2023/09/15 02:07:52;;;;;;;3.37;3.07;;;10.30;99.90;;;;;;5057441;28;21142;-59
2023/09/15 02:10:20;;;;;;;3.37;3.03;;;10.30;99.90;;;;;;5060555;28;20555;-60
2023/09/15 02:12:48;;;;;;;3.67;3.33;;;10.20;99.90;;;;;;5049065;28;21080;-59
2023/09/15 02:15:17;;;;;;;4.30;3.17;;;10.20;99.90;;;;;;5055542;28;20498;-58
2023/09/15 02:17:45;;;;;;;3.27;3.07;;;10.20;99.90;;;;;;5044519;28;20570;-60
2023/09/15 02:20:18;;;;;;;3.83;3.40;;;10.20;99.90;;;;;;5053456;28;20470;-60
2023/09/15 02:22:46;;;;;;;3.77;3.47;;;10.20;99.90;;;;;;5051603;28;20596;-57
2023/09/15 02:25:14;;;;;;;4.10;3.37;;;10.10;99.90;;;;;;5052192;28;20954;-58
2023/09/15 02:27:42;;;;;;;3.17;2.87;;;10.10;99.90;;;;;;5055954;28;21412;-59
2023/09/15 02:30:11;;;;;;;3.20;3.00;;;10.10;99.90;;;;;;5060456;28;20979;-59
2023/09/15 02:32:39;;;;;;;3.90;3.50;;;10.10;99.90;;;;;;5047389;28;20614;-59
2023/09/15 02:35:08;;;;;;;3.27;2.97;;;10.00;99.90;;;;;;5056818;28;20509;-58
2023/09/15 02:37:37;;;;;;;3.10;2.90;;;10.00;99.90;;;;;;5058962;28;21221;-59
2023/09/15 02:40:07;;;;;;;3.37;3.07;;;10.10;99.90;;;;;;5052793;28;20616;-58
2023/09/15 02:42:35;;;;;;;3.20;2.90;;;10.00;99.90;;;;;;5040855;28;20485;-59
2023/09/15 02:45:04;;;;;;;3.00;2.80;;;10.00;99.90;;;;;;5049055;28;20505;-60
2023/09/15 02:47:32;;;;;;;3.10;2.80;;;10.00;99.90;;;;;;5053479;28;21035;-59
2023/09/15 02:50:00;;;;;;;3.23;3.03;;;10.00;99.90;;;;;;5060431;28;20469;-59
2023/09/15 02:52:28;;;;;;;3.00;2.80;;;9.90;99.90;;;;;;5048567;28;20671;-59
2023/09/15 02:54:58;;;;;;;3.50;3.20;;;10.00;99.90;;;;;;5052602;28;20493;-60
2023/09/15 02:57:26;;;;;;;3.27;3.07;;;9.90;99.90;;;;;;5050311;28;20476;-59
2023/09/15 02:59:54;;;;;;;3.07;2.87;;;9.90;99.90;;;;;;5048897;28;21797;-59
2023/09/15 03:02:22;;;;;;;3.67;3.20;;;9.90;99.90;;;;;;5047651;28;20504;-60
2023/09/15 03:04:50;;;;;;;3.20;3.00;;;9.90;99.90;;;;;;5053461;28;20525;-59
2023/09/15 03:07:18;;;;;;;3.60;3.30;;;9.80;99.90;;;;;;5056774;28;20970;-59
2023/09/15 03:09:46;;;;;;;3.70;2.90;;;9.80;99.90;;;;;;5058243;28;20511;-60
2023/09/15 03:12:16;;;;;;;4.03;3.27;;;9.80;99.90;;;;;;5059607;28;20575;-59
2023/09/15 03:14:44;;;;;;;3.00;2.80;;;9.80;99.90;;;;;;5062644;28;20461;-59
2023/09/15 03:17:13;;;;;;;2.90;2.70;;;9.70;99.90;;;;;;5055378;28;20469;-59
2023/09/15 03:19:41;;;;;;;3.47;3.17;;;9.70;99.90;;;;;;5066957;28;20528;-59
2023/09/15 03:22:09;;;;;;;3.20;2.93;;;9.70;99.90;;;;;;5059037;28;20870;-60
2023/09/15 03:24:38;;;;;;;2.93;2.73;;;9.70;99.90;;;;;;5066304;28;20551;-59
2023/09/15 03:27:06;;;;;;;3.43;2.80;;;9.70;99.90;;;;;;5058908;28;20534;-59
2023/09/15 03:29:35;;;;;;;4.63;3.10;;;9.70;99.90;;;;;;5062919;28;20478;-59
2023/09/15 03:32:04;;;;;;;2.80;2.50;;;9.70;99.90;;;;;;5054355;28;20488;-59
2023/09/15 03:34:32;;;;;;;3.03;2.73;;;9.70;99.90;;;;;;5056555;28;20980;-58
2023/09/15 03:37:01;;;;;;;2.80;2.60;;;9.70;99.90;;;;;;5055626;28;20467;-58
2023/09/15 03:39:29;;;;;;;3.60;2.60;;;9.60;99.90;;;;;;5063026;28;20465;-60
2023/09/15 03:41:57;;;;;;;4.30;2.93;;;9.60;99.90;;;;;;5057613;28;20482;-59
2023/09/15 03:44:25;;;;;;;3.00;2.70;;;9.60;99.90;;;;;;5054337;28;20865;-59
2023/09/15 03:46:54;;;;;;;3.20;3.00;;;9.60;99.90;;;;;;5046470;28;20500;-59
2023/09/15 03:49:22;;;;;;;2.90;2.70;;;9.60;99.90;;;;;;5055281;28;20473;-59
2023/09/15 03:51:51;;;;;;;3.07;2.43;;;9.60;99.90;;;;;;5057402;28;20694;-59
2023/09/15 03:54:19;;;;;;;3.47;2.80;;;9.50;99.90;;;;;;5058199;28;20950;-59
2023/09/15 03:56:47;;;;;;;3.10;2.80;;;9.50;99.90;;;;;;5049695;28;20489;-60
2023/09/15 03:59:14;;;;;;;2.90;2.70;;;9.50;99.90;;;;;;5065526;28;20491;-57
2023/09/15 04:01:42;;;;;;;2.90;2.70;;;9.50;99.90;;;;;;5056349;28;20992;-59
2023/09/15 04:04:12;;;;;;;3.83;2.80;;;9.50;99.90;;;;;;5058075;28;20849;-59
2023/09/15 04:06:41;;;;;;;3.57;3.27;;;9.50;99.90;;;;;;5062338;28;20517;-59
2023/09/15 04:09:10;;;;;;;3.23;3.03;;;9.50;99.90;;;;;;5061475;28;20912;-59
2023/09/15 04:11:38;;;;;;;3.00;2.73;;;9.50;99.90;;;;;;5058465;28;20489;-59
2023/09/15 04:14:06;;;;;;;3.80;3.13;;;9.50;99.90;;;;;;5054418;28;20560;-58
2023/09/15 04:16:35;;;;;;;3.50;2.70;;;9.50;99.90;;;;;;5054837;28;21045;-59
2023/09/15 04:19:04;;;;;;;4.10;2.53;;;9.50;99.90;;;;;;5061123;28;20488;-60
2023/09/15 04:21:34;;;;;;;2.67;2.47;;;9.50;99.90;;;;;;5052593;28;20485;-58
2023/09/15 04:24:02;;;;;;;2.83;2.63;;;9.50;99.90;;;;;;5053669;28;20489;-57
2023/09/15 04:26:30;;;;;;;2.70;2.50;;;9.50;99.90;;;;;;5054703;28;20481;-59
2023/09/15 04:28:58;;;;;;;2.90;2.70;;;9.50;99.90;;;;;;5056921;28;21684;-59
2023/09/15 04:31:26;;;;;;;3.13;2.83;;;9.50;99.90;;;;;;5052267;28;21021;-59
2023/09/15 04:33:55;;;;;;;3.00;2.80;;;9.50;99.90;;;;;;5052674;28;20467;-59
2023/09/15 04:36:23;;;;;;;3.47;3.17;;;9.50;99.90;;;;;;5056049;28;20496;-59
2023/09/15 04:38:52;;;;;;;3.70;2.87;;;9.50;99.90;;;;;;5060049;28;20973;-58
2023/09/15 04:41:20;;;;;;;4.97;3.00;;;9.50;99.90;;;;;;5046894;28;21169;-59
2023/09/15 04:43:48;;;;;;;3.90;3.23;;;9.50;99.90;;;;;;5042545;28;20480;-58
2023/09/15 04:46:17;;;;;;;3.23;3.00;;;9.50;99.90;;;;;;5057466;28;20600;-59
2023/09/15 04:48:45;;;;;;;4.50;3.20;;;9.50;99.90;;;;;;5050565;28;20678;-57
2023/09/15 04:51:14;;;;;;;2.60;2.40;;;9.50;99.90;;;;;;5042314;28;20516;-59
2023/09/15 04:53:42;;;;;;;3.83;3.10;;;9.60;99.90;;;;;;5055709;28;20465;-60
2023/09/15 04:56:11;;;;;;;3.33;3.10;;;9.60;99.90;;;;;;5058333;28;20580;-60
2023/09/15 04:58:39;;;;;;;4.93;3.60;;;9.60;99.90;;;;;;5059474;28;21097;-59
2023/09/15 05:01:07;;;;;;;3.57;3.27;;;9.60;99.90;;;;;;5053412;28;20552;-62
2023/09/15 05:03:37;;;;;;;3.63;3.33;;;9.70;99.90;;;;;;5053788;28;20986;-64
2023/09/15 05:06:05;;;;;;;3.20;2.90;;;9.70;99.90;;;;;;5045597;28;21849;-62
2023/09/15 05:08:33;;;;;;;3.50;3.20;;;9.70;99.90;;;;;;5055840;28;20567;-59
2023/09/15 05:11:01;;;;;;;3.40;3.10;;;9.80;99.90;;;;;;5050343;28;20479;-58
2023/09/15 05:13:31;;;;;;;3.20;2.90;;;9.80;99.90;;;;;;5056337;28;20527;-58
2023/09/15 05:15:59;;;;;;;4.23;3.20;;;9.80;99.90;;;;;;5047551;28;20489;-59
2023/09/15 05:18:27;;;;;;;3.80;3.20;;;9.90;99.90;;;;;;5048695;28;20886;-59
2023/09/15 05:20:55;;;;;;;3.47;3.17;;;9.90;99.90;;;;;;5059139;28;20483;-58
2023/09/15 05:23:23;;;;;;;3.90;3.60;;;9.90;99.90;;;;;;5054695;28;20469;-59
2023/09/15 05:25:53;;;;;;;3.50;3.20;;;9.90;99.90;;;;;;5052847;28;20492;-59
2023/09/15 05:28:21;;;;;;;4.63;3.30;;;10.00;99.90;;;;;;5044803;28;20477;-59
2023/09/15 05:30:51;;;;;;;3.73;3.33;;;10.00;99.90;;;;;;5044031;28;20538;-59
2023/09/15 05:33:20;;;;;;;4.50;3.50;;;10.00;99.90;;;;;;5038071;28;20971;-59
2023/09/15 05:35:48;;;;;;;3.97;3.67;;;10.00;99.90;;;;;;5051567;28;20498;-60
2023/09/15 05:38:16;;;;;;;5.43;4.17;;;10.10;99.90;;;;;;5047802;28;20549;-58
2023/09/15 05:40:44;;;;;;;7.07;3.57;;;10.10;99.90;;;;;;5048076;28;20478;-59
2023/09/15 05:43:12;;;;;;;5.27;3.30;;;10.10;99.90;;;;;;5045167;28;20572;-60
2023/09/15 05:45:40;;;;;;;4.23;3.93;;;10.20;99.90;;;;;;5051581;28;20485;-59
2023/09/15 05:48:12;;;;;;;4.03;3.73;;;10.30;99.90;;;;;;5052610;28;20474;-59
2023/09/15 05:50:40;;;;;;;6.30;4.73;;;10.40;99.90;;;;;;5050533;28;20846;-59
2023/09/15 05:53:08;;;;;;;5.03;4.53;;;10.50;99.90;;;;;;5049579;28;20521;-59
2023/09/15 05:55:36;;;;;;;4.40;4.10;;;10.50;99.90;;;;;;5048809;28;21967;-59
2023/09/15 05:58:04;;;;;;;6.10;4.30;;;10.50;99.90;;;;;;5052966;28;20911;-59
2023/09/15 06:00:32;;;;;;;5.00;4.50;;;10.60;99.90;;;;;;5056444;28;20480;-59
2023/09/15 06:03:00;;;;;;;5.80;4.80;;;10.60;99.90;;;;;;5058624;28;20493;-59
2023/09/15 06:05:30;;;;;;;4.40;4.00;;;10.70;99.90;;;;;;5053384;28;20540;-58
2023/09/15 06:07:58;;;;;;;5.00;4.17;;;10.70;99.90;;;;;;5061154;28;21030;-58
2023/09/15 06:10:26;;;;;;;6.00;4.77;;;10.80;99.90;;;;;;5057570;28;20560;-58
2023/09/15 06:12:54;;;;;;;5.10;4.60;;;10.80;99.90;;;;;;5051779;28;20580;-59
2023/09/15 06:15:23;;;;;;;6.27;4.70;;;10.90;99.90;;;;;;5053772;28;20589;-60
2023/09/15 06:17:51;;;;;;;5.87;4.57;;;10.90;99.90;;;;;;5056833;28;21046;-59
2023/09/15 06:20:19;;;;;;;5.07;4.57;;;10.90;99.90;;;;;;5055098;28;20557;-62
2023/09/15 06:22:49;;;;;;;5.27;4.77;;;10.90;99.90;;;;;;5053988;28;20499;-59
2023/09/15 06:25:17;;;;;;;5.60;4.57;;;11.00;99.90;;;;;;5053276;28;20592;-58
2023/09/15 06:27:45;;;;;;;5.77;5.23;;;11.00;99.90;;;;;;5056411;28;20469;-63
2023/09/15 06:30:14;;;;;;;5.50;4.87;;;11.10;99.90;;;;;;5056168;28;20474;-60
2023/09/15 06:32:42;;;;;;;5.87;5.27;;;11.20;99.90;;;;;;5053436;28;20584;-60
2023/09/15 06:35:12;;;;;;;5.67;5.07;;;11.30;99.90;;;;;;5043687;28;20494;-58
2023/09/15 06:37:40;;;;;;;6.10;4.97;;;11.40;99.90;;;;;;5055077;28;20466;-58
2023/09/15 06:40:12;;;;;;;5.40;4.90;;;11.50;99.90;;;;;;5056750;28;20553;-59
2023/09/15 06:42:40;;;;;;;7.97;5.00;;;11.60;99.90;;;;;;5059504;28;20492;-59
2023/09/15 06:45:10;;;;;;;5.27;4.77;;;11.60;99.90;;;;;;5050646;28;20504;-60
2023/09/15 06:47:38;;;;;;;4.80;4.40;;;11.80;99.90;;;;;;5055421;28;20571;-60
2023/09/15 06:50:07;;;;;;;5.30;4.80;;;11.80;99.90;;;;;;5056803;28;21008;-59
2023/09/15 06:52:35;;;;;;;6.03;4.53;;;11.90;99.90;;;;;;5057754;28;20490;-59
2023/09/15 06:55:03;;;;;;;5.37;4.40;;;12.00;99.90;;;;;;5054514;28;20572;-59
2023/09/15 06:57:33;;;;;;;5.13;4.63;;;12.10;99.90;;;;;;5056081;28;20471;-60
2023/09/15 07:00:02;;;;;;;5.43;4.80;;;12.10;99.90;;;;;;5060013;28;20476;-59
2023/09/15 07:02:30;;;;;;;4.40;4.00;;;12.20;99.90;;;;;;5052617;28;20619;-60
2023/09/15 07:04:58;;;;;;;4.40;4.00;;;12.20;99.90;;;;;;5044763;28;20584;-58
2023/09/15 07:07:26;;;;;;;4.90;4.50;;;12.30;99.90;;;;;;5059230;28;20480;-58
2023/09/15 07:09:55;;;;;;;4.90;4.50;;;12.30;99.90;;;;;;5061048;28;20548;-58
2023/09/15 07:12:23;;;;;;;6.87;4.60;;;12.30;99.90;;;;;;5061303;28;20481;-60
2023/09/15 07:14:53;;;;;;;5.07;4.43;;;12.40;99.90;;;;;;5059725;28;20472;-60
2023/09/15 07:17:21;;;;;;;4.40;4.00;;;12.50;99.90;;;;;;5052599;28;20473;-59
2023/09/15 07:19:50;;;;;;;5.20;4.47;;;12.60;99.90;;;;;;5051822;28;20468;-59
2023/09/15 07:22:17;;;;;;;4.33;3.93;;;12.60;99.90;;;;;;5058070;28;20604;-61
2023/09/15 07:24:46;;;;;;;7.50;4.27;;;12.80;99.90;;;;;;5059233;28;20461;-60
2023/09/15 07:27:14;;;;;;;4.83;4.07;;;12.90;99.90;;;;;;5055669;28;20485;-58
2023/09/15 07:29:42;;;;;;;4.13;3.83;;;13.00;99.90;;;;;;5059233;28;20574;-59
2023/09/15 07:32:11;;;;;;;4.63;4.20;;;13.10;99.90;;;;;;5052845;28;20493;-58
2023/09/15 07:34:39;;;;;;;3.80;3.50;;;13.10;99.90;;;;;;5052891;28;20568;-58
2023/09/15 07:37:08;;;;;;;4.67;3.90;;;13.10;99.90;;;;;;5060579;28;20583;-58
2023/09/15 07:39:36;;;;;;;6.50;3.97;;;13.20;99.90;;;;;;5056754;28;20584;-58
2023/09/15 07:42:08;;;;;;;4.70;3.40;;;13.20;99.90;;;;;;5056727;28;21004;-57
2023/09/15 07:44:37;;;;;;;4.40;4.00;;;13.30;99.90;;;;;;5055319;28;20474;-58
2023/09/15 07:47:06;;;;;;;4.90;3.40;;;13.40;99.90;;;;;;5054848;28;20489;-58
2023/09/15 07:49:36;;;;;;;4.07;3.50;;;13.50;99.90;;;;;;5059544;28;20542;-58
2023/09/15 07:52:05;;;;;;;4.80;3.63;;;13.50;99.90;;;;;;5054738;28;20657;-57
2023/09/15 07:54:35;;;;;;;5.30;3.30;;;13.70;99.90;;;;;;5059715;28;20481;-57
2023/09/15 07:57:03;;;;;;;3.70;3.00;;;13.80;99.90;;;;;;5062335;28;20596;-58
2023/09/15 07:59:31;;;;;;;3.70;2.80;;;13.90;99.90;;;;;;5057843;28;20558;-58
2023/09/15 08:02:00;;;;;;;4.60;3.10;;;14.00;99.90;;;;;;5060388;28;20481;-58
2023/09/15 08:04:28;;;;;;;3.50;3.13;;;14.10;99.90;;;;;;5058942;28;20560;-58
2023/09/15 08:06:58;;;;;;;3.63;3.00;;;14.20;99.90;;;;;;5062044;28;20533;-58
2023/09/15 08:09:26;;;;;;;2.67;2.47;;;14.20;99.90;;;;;;5061996;28;20543;-58
2023/09/15 08:11:59;;;;;;;3.70;2.77;;;14.30;99.90;;;;;;5058269;28;20587;-58
2023/09/15 08:14:27;;;;;;;4.37;3.03;;;14.50;99.90;;;;;;5055282;28;21052;-57
2023/09/15 08:16:55;;;;;;;4.03;2.80;;;14.60;99.90;;;;;;5059580;28;20482;-58
2023/09/15 08:19:24;;;;;;;7.03;2.97;;;14.70;99.90;;;;;;5057909;28;20469;-58
2023/09/15 08:21:52;;;;;;;6.03;3.23;;;14.80;99.90;;;;;;5052310;28;20576;-58
2023/09/15 08:24:21;;;;;;;4.07;2.60;;;14.90;99.90;;;;;;5062493;28;21181;-58
2023/09/15 08:26:49;;;;;;;3.70;3.33;;;15.00;99.90;;;;;;5060528;28;20578;-58
2023/09/15 08:29:17;;;;;;;3.23;2.93;;;15.10;99.90;;;;;;5059595;28;20906;-58
2023/09/15 08:31:45;;;;;;;3.30;2.70;;;15.20;99.90;;;;;;5058486;28;20509;-58
2023/09/15 08:34:13;;;;;;;5.17;3.20;;;15.30;99.90;;;;;;5061037;28;20469;-58
2023/09/15 08:36:42;;;;;;;5.20;2.97;;;15.40;99.90;;;;;;5062458;28;20477;-59
2023/09/15 08:39:11;;;;;;;3.47;3.00;;;15.40;99.90;;;;;;5062659;28;20469;-60
2023/09/15 08:41:48;;;;;;;3.23;2.60;;;15.50;99.90;;;;;;5054834;28;21600;-57
2023/09/15 08:44:17;;;;;;;5.70;2.80;;;15.50;99.90;;;;;;5057291;28;20461;-58
2023/09/15 08:46:48;;;;;;;2.73;2.50;;;15.60;99.90;;;;;;5057730;28;20578;-58
2023/09/15 08:49:17;;;;;;;4.23;2.70;;;15.70;99.90;;;;;;5059670;28;20476;-58
2023/09/15 08:51:46;;;;;;;2.70;2.50;;;15.80;99.90;;;;;;5057058;28;20580;-58
2023/09/15 08:54:14;;;;;;;2.60;2.40;;;15.90;99.90;;;;;;5064069;28;20998;-56
2023/09/15 08:56:44;;;;;;;2.83;2.63;;;16.00;99.90;;;;;;5063689;28;20609;-58
2023/09/15 08:59:13;;;;;;;5.13;2.87;;;16.10;99.90;;;;;;5050316;28;20604;-60
2023/09/15 09:01:41;;;;;;;4.07;2.50;;;16.20;99.90;;;;;;5057942;28;20643;-60
2023/09/15 09:04:10;;;;;;;4.80;2.27;;;16.30;99.90;;;;;;5052652;28;20552;-59
2023/09/15 09:06:39;;;;;;;4.23;2.50;;;16.40;99.90;;;;;;5062616;28;20490;-60
2023/09/15 09:09:10;;;;;;;2.80;2.60;;;16.50;99.90;;;;;;5059144;28;20462;-59
2023/09/15 09:11:38;;;;;;;5.40;2.40;;;16.60;99.90;;;;;;5056014;28;21000;-59
2023/09/15 09:14:11;;;;;;;3.67;2.83;;;16.80;99.90;;;;;;5058982;28;20954;-59
2023/09/15 09:16:42;;;;;;;2.40;2.20;;;16.90;99.90;;;;;;5060562;28;20576;-59
2023/09/15 09:19:10;;;;;;;2.57;2.37;;;17.00;99.90;;;;;;5055651;28;20468;-58
2023/09/15 09:21:39;;;;;;;2.60;2.40;;;17.10;99.90;;;;;;5054528;28;20477;-59
2023/09/15 09:24:09;;;;;;;2.73;2.40;;;17.20;99.90;;;;;;5060717;28;20926;-60
2023/09/15 09:26:37;;;;;;;2.70;2.43;;;17.30;99.90;;;;;;5056485;28;21063;-60
2023/09/15 09:29:07;;;;;;;3.47;2.60;;;17.40;99.90;;;;;;5059018;28;20570;-60
2023/09/15 09:31:35;;;;;;;3.33;2.33;;;17.40;99.90;;;;;;5053945;28;20493;-59
2023/09/15 09:34:04;;;;;;;5.00;2.80;;;17.50;99.90;;;;;;5057202;28;20489;-59
2023/09/15 09:36:32;;;;;;;4.80;2.90;;;17.60;99.90;;;;;;5054768;28;20574;-60
2023/09/15 09:39:00;;;;;;;3.87;2.23;;;17.70;99.90;;;;;;5056565;28;20465;-59
2023/09/15 09:41:29;;;;;;;3.27;2.50;;;17.70;99.90;;;;;;5057957;28;20831;-60
2023/09/15 09:44:03;;;;;;;2.63;2.30;;;17.80;99.90;;;;;;5054647;28;20487;-59
2023/09/15 09:46:33;;;;;;;3.00;2.80;;;17.90;99.90;;;;;;5057309;28;20485;-60
2023/09/15 09:49:02;;;;;;;2.97;2.53;;;17.90;99.90;;;;;;5058278;28;20580;-60
2023/09/15 09:51:30;;;;;;;4.50;2.70;;;18.00;99.90;;;;;;5057920;28;20511;-59
2023/09/15 09:53:58;;;;;;;3.10;2.43;;;18.20;99.90;;;;;;5058372;28;20551;-59
2023/09/15 09:56:26;;;;;;;3.73;2.50;;;18.20;99.90;;;;;;5058154;28;20642;-60
2023/09/15 09:58:54;;;;;;;5.70;3.57;;;18.30;99.90;;;;;;5045784;28;20470;-58
2023/09/15 10:01:23;;;;;;;2.67;2.40;;;18.40;99.90;;;;;;5054758;28;20489;-58
2023/09/15 10:03:52;;;;;;;3.43;2.47;;;18.60;99.90;;;;;;5056769;28;20468;-58
2023/09/15 10:06:21;;;;;;;2.63;2.33;;;18.70;99.90;;;;;;5062538;28;20485;-59
2023/09/15 10:08:50;;;;;;;4.17;3.10;;;18.70;99.90;;;;;;5062334;28;20501;-59
2023/09/15 10:11:18;;;;;;;2.70;2.50;;;18.80;99.90;;;;;;5058391;28;20513;-59
2023/09/15 10:13:48;;;;;;;2.67;2.47;;;18.90;99.90;;;;;;5057203;28;20600;-60
2023/09/15 10:16:17;;;;;;;4.20;2.97;;;18.90;99.90;;;;;;5064346;28;20493;-60
2023/09/15 10:18:45;;;;;;;3.03;2.70;;;19.00;99.90;;;;;;5050549;28;20478;-58
2023/09/15 10:21:16;;;;;;;3.30;2.53;;;19.10;99.90;;;;;;5045204;28;20863;-59
2023/09/15 10:23:45;;;;;;;3.20;3.00;;;19.20;99.90;;;;;;5061515;28;20465;-59
2023/09/15 10:26:13;;;;;;;4.27;3.10;;;19.30;99.90;;;;;;5061878;28;20477;-59
2023/09/15 10:28:49;;;;;;;4.40;3.03;;;19.40;99.90;;;;;;5052070;28;20496;-58
2023/09/15 10:31:17;;;;;;;8.03;3.43;;;19.50;99.90;;;;;;5055065;28;20477;-58
2023/09/15 10:33:47;;;;;;;3.63;2.90;;;19.60;99.90;;;;;;5053969;28;20492;-58
2023/09/15 10:36:17;;;;;;;4.40;3.00;;;19.70;99.90;;;;;;5051417;28;20493;-59
2023/09/15 10:38:47;;;;;;;3.73;2.83;;;19.80;99.90;;;;;;5060967;28;20470;-59
2023/09/15 10:41:28;;;;;;;3.20;2.70;;;19.80;99.90;;;;;;5054393;28;20481;-59
2023/09/15 10:43:56;;;;;;;2.63;2.43;;;19.80;99.90;;;;;;5041362;28;20465;-60
2023/09/15 10:46:35;;;;;;;8.60;3.30;;;19.80;99.90;;;;;;5058707;28;20570;-60
2023/09/15 10:49:17;;;;;;;4.93;2.80;;;19.90;99.90;;;;;;5050435;28;21048;-59
2023/09/15 10:51:54;;;;;;;3.73;2.67;;;20.00;99.90;;;;;;5055395;28;20657;-59
2023/09/15 10:54:25;;;;;;;3.13;2.73;;;20.20;99.90;;;;;;5058388;28;20461;-59
2023/09/15 10:56:55;;;;;;;3.40;2.83;;;20.30;99.90;;;;;;5059777;28;20489;-60
2023/09/15 10:59:23;;;;;;;4.30;2.70;;;20.30;99.90;;;;;;5055117;28;20510;-60
2023/09/15 11:01:51;;;;;;;3.20;2.10;;;20.40;99.90;;;;;;5057930;28;20491;-59
2023/09/15 11:04:21;;;;;;;3.07;2.77;;;20.40;99.90;;;;;;5056496;28;20454;-60
2023/09/15 11:06:54;;;;;;;4.90;3.00;;;20.50;99.90;;;;;;5049535;28;20488;-59
2023/09/15 11:09:23;;;;;;;3.10;2.87;;;20.60;99.90;;;;;;5054623;28;20496;-59
2023/09/15 11:11:53;;;;;;;4.07;3.03;;;20.80;99.90;;;;;;5049697;28;21213;-60
2023/09/15 11:14:22;;;;;;;2.80;2.60;;;20.80;99.90;;;;;;5049715;28;20474;-59
2023/09/15 11:16:51;;;;;;;3.43;2.60;;;20.90;99.90;;;;;;5052589;28;20576;-59
2023/09/15 11:19:24;;;;;;;3.00;2.47;;;21.00;99.90;;;;;;5054184;28;20488;-59
2023/09/15 11:21:52;;;;;;;3.20;2.90;;;21.00;99.90;;;;;;5054331;28;20528;-58
2023/09/15 11:24:22;;;;;;;4.40;3.07;;;21.20;99.90;;;;;;5048175;28;20947;-57
2023/09/15 11:26:51;;;;;;;3.00;2.80;;;21.30;99.90;;;;;;5059155;28;20517;-58
2023/09/15 11:29:25;;;;;;;2.70;2.50;;;21.40;99.90;;;;;;5056129;28;20520;-59
2023/09/15 11:31:54;;;;;;;3.50;2.67;;;21.50;99.90;;;;;;5056129;28;20497;-59
2023/09/15 11:34:23;;;;;;;2.87;2.57;;;21.50;99.90;;;;;;5056118;28;20485;-58
2023/09/15 11:36:56;;;;;;;3.70;2.70;;;21.60;99.90;;;;;;5059490;28;20500;-58
2023/09/15 11:39:26;;;;;;;3.00;2.70;;;21.70;99.90;;;;;;5052184;28;20564;-63
2023/09/15 11:41:54;;;;;;;3.27;2.97;;;21.80;99.90;;;;;;5057090;28;20576;-58
2023/09/15 11:44:24;;;;;;;3.33;2.90;;;21.90;99.90;;;;;;5056336;28;20558;-59
2023/09/15 11:46:52;;;;;;;4.13;2.80;;;22.00;99.90;;;;;;5056537;28;20492;-59
2023/09/15 11:49:21;;;;;;;5.70;3.10;;;22.10;99.90;;;;;;5057954;28;20573;-59
2023/09/15 11:51:50;;;;;;;2.63;2.40;;;22.30;99.90;;;;;;5049068;28;20496;-61
2023/09/15 11:54:19;;;;;;;6.13;3.00;;;22.30;99.90;;;;;;5055570;28;20465;-60
2023/09/15 11:56:49;;;;;;;4.50;2.70;;;22.40;99.90;;;;;;5062617;28;20493;-58
2023/09/15 11:59:17;;;;;;;3.73;2.67;;;22.50;99.90;;;;;;5057730;28;20554;-59
2023/09/15 12:01:48;;;;;;;2.83;2.50;;;22.60;99.90;;;;;;5058750;28;20562;-60
2023/09/15 12:04:16;;;;;;;3.33;2.40;;;22.80;99.90;;;;;;5049599;28;20553;-60
2023/09/15 12:06:46;;;;;;;2.37;2.27;;;23.00;99.90;;;;;;5060887;28;20485;-59
2023/09/15 12:09:15;;;;;;;4.30;2.63;;;23.10;99.90;;;;;;5054606;28;20555;-59
2023/09/15 12:11:44;;;;;;;3.77;2.67;;;23.20;99.90;;;;;;5055368;28;20510;-59
2023/09/15 12:14:14;;;;;;;3.33;2.90;;;23.30;99.90;;;;;;5052503;28;20469;-60
2023/09/15 12:16:45;;;;;;;3.47;2.40;;;23.40;99.90;;;;;;5060760;28;20485;-60
2023/09/15 12:19:14;;;;;;;3.10;2.77;;;23.60;99.90;;;;;;5054089;28;20484;-59
2023/09/15 12:21:52;;;;;;;3.40;3.00;;;23.70;99.90;;;;;;5054125;28;20552;-60
2023/09/15 12:24:21;;;;;;;2.83;2.63;;;23.80;99.90;;;;;;5053625;28;20477;-59
2023/09/15 12:26:50;;;;;;;3.03;2.73;;;24.00;99.90;;;;;;5060759;28;20546;-60
2023/09/15 12:29:19;;;;;;;2.70;2.47;;;24.20;99.90;;;;;;5057425;28;20585;-59
2023/09/15 12:31:49;;;;;;;2.60;2.40;;;24.40;99.20;;;;;;5049757;28;20485;-61
2023/09/15 12:34:21;;;;;;;2.93;2.73;;;24.50;94.90;;;;;;5055830;28;20890;-60
2023/09/15 12:36:52;;;;;;;2.53;2.33;;;24.60;96.80;;;;;;5053169;28;20519;-60
2023/09/15 12:39:21;;;;;;;3.30;2.63;;;24.80;96.30;;;;;;5044825;28;20950;-60
2023/09/15 12:41:58;;;;;;;2.77;2.50;;;25.20;99.90;;;;;;5055508;28;20582;-60
2023/09/15 12:44:43;;;;;;;2.73;2.53;;;25.60;97.10;;;;;;5051234;28;20825;-60
2023/09/15 12:47:11;;;;;;;2.90;2.70;;;25.90;88.10;;;;;;5059004;28;20527;-60
2023/09/15 12:49:40;;;;;;;2.43;2.23;;;26.10;82.30;;;;;;5060018;28;20489;-60
2023/09/15 12:52:09;;;;;;;3.67;2.60;;;26.30;84.30;;;;;;5056740;28;20493;-60
2023/09/15 12:54:37;;;;;;;2.47;2.27;;;26.80;84.90;;;;;;5052364;28;20470;-60
2023/09/15 12:57:05;;;;;;;4.00;2.77;;;27.50;80.30;;;;;;5057378;28;20469;-60
2023/09/15 12:59:33;;;;;;;3.50;2.23;;;28.40;77.40;;;;;;5055143;28;20562;-60